Terminal Aerodrome Forecast
Issued by NWS Wilmington, OH

Current Version | Previous Version | Graphics & Text | Print | Product List | Glossary On
Versions: 1 2 3 4 5 6 7 8 9 10 11 12 13 14 15 16 17 18 19 20 21 22 23 24 25 26
000
FTUS41 KILN 272000 AAB
TAFCVG
TAF AMD
KCVG 272045Z 2721/2824 33006KT P6SM SCT040
      TEMPO 2721/2722 BKN040
     FM280000 VRB03KT P6SM SCT200
     FM280600 08004KT P6SM BKN100
     FM281500 08008KT P6SM BKN060=

USA.gov is the U.S. government's official web portal to all federal, state and local government web resources and services.